Terminal Aerodrome Forecast
Issued by NWS

Home | Current Version | Previous Version | Text Only | Print | Product List | Glossary On
Versions: 1 2 3 4 5 6 7 8 9 10 11 12 13 14 15 16 17 18 19 20 21 22 23 24 25 26 27 28 29 30 31 32 33 34 35 36
000
FTUS44 KHGX 011518 AAD
TAFSGR
TAF AMD
KSGR 011518Z 0115/0212 10005KT P6SM VCTS SCT025CB BKN250
      TEMPO 0115/0117 VRB20G30KT 1SM -TSRA BR BKN025CB
     FM011700 13010KT P6SM VCTS BKN040CB
     FM012200 14010KT P6SM BKN100 BKN250
     FM020300 14005KT P6SM BKN250=

USA.gov is the U.S. government's official web portal to all federal, state and local government web resources and services.